Logs | Multi-Operator: University of Twente, Enschede (Web SDR), HOL - JO32kf
Paging Controls
Log ID Operator
(If Remote)
Date UTC KHz ID Location S/P ITU Region GSQ LSB USB Sec. Fmt. Power KM Miles Deg
2401123 John Collins 2023-05-28 0213 394 LYE Lubeck / Blanckensee DEU eu JO53it 311 193 54
2402533 Stephen Howe 2023-05-28 0146 398 LRN Lorquin / Xouaxange FRA eu JN38lq 394 245 179
2402534 Stephen Howe 2023-05-28 0144 400 MSW Munchen DEU eu JN58wi 100 558 347 138
2402524 Stephen Howe 2023-05-28 0122 356 WBA Wolverhampton ENG eu IO82um 623 387 276
2402523 Stephen Howe 2023-05-28 0122 355 ONW Antwerpen / Deurne BEL eu JO21ge 198 123 235
2402519 Stephen Howe 2023-05-28 0109 343 KUS Kaunas / Karmelava LTU eu KO24bx 100 1175 730 68
2402518 Stephen Howe 2023-05-28 0052 338 OA Jonkoping SWE eu JO77bt 773 480 33
2402516 Stephen Howe 2023-05-28 0048 334 POY Paris / Orly FRA eu JN18er 503 312 221
2402515 Stephen Howe 2023-05-28 0045 333 LE Vasteraas / Hasslo SWE eu JO89ip 1025 637 32
2402514 Stephen Howe 2023-05-28 0040 327 MVC Merville / Calonne FRA eu JO10hn 348 216 239
2402512 Stephen Howe 2023-05-28 0039 322 RL La Rochelle / Ile De Re FRA eu IN96ke 887 551 223
2402511 Stephen Howe 2023-05-28 0036 321 ABY Albert / Bray FRA eu JN19jx 379 236 230
2402510 Stephen Howe 2023-05-28 0027 318 HIG Bremen DEU eu JO43kb 25 164 102 54
2402507 Stephen Howe 2023-05-28 0014 289 HR Hericourt FRA eu JN37in 25 519 322 181
2401125 John Collins 2023-05-27 2203 401 BBA Benbecula SCT eu IO67hl 50 1080 671 308
2402532 Stephen Howe 2023-05-27 0258 389 ZRZ Zaragoza ESP eu IN91jr 300 1317 818 210
2402527 Stephen Howe 2023-05-27 0251 365 LJ Koln / Bonn DEU eu JO30mw 25 144 90 175
2402525 Stephen Howe 2023-05-27 0249 358 HW Hannover / West DEU eu JO42sl 25 183 114 80
2402521 Stephen Howe 2023-05-27 0245 352 LAA Niederrhein DEU eu JO31co 45 83 52 213
2402522 Stephen Howe 2023-05-27 0245 354 PAD Paderborn / Lippstadt DEU eu JO41ho 25 139 86 119
2402539 Stephen Howe 2023-05-27 0237 417 AH Angelholm / Barkakra SWE eu JO66kg 594 369 38
2402540 Stephen Howe 2023-05-27 0234 424 PIS Zagreb / Pleso / Pisarovina HRV eu JN75wo 986 613 134
2402530 Stephen Howe 2023-05-27 0231 382 SBG Salzburg / Oberndorf AUT eu JN67kx 50 637 396 135
2402509 Stephen Howe 2023-05-27 0227 315 HOL Villacoublay / Velizy FRA eu JN08vr 25 530 329 224
2402508 Stephen Howe 2023-05-27 0221 311 LMA Lima / Bruggen DEU eu JO31ei 25 103 64 199
2402520 Stephen Howe 2023-05-27 0212 351.5 PLA Pula HRV eu JN64vv 2000 960 597 145
2401121 John Collins 2023-05-27 0209 373 NW Maastricht / Beek HOL eu JO21wa 15 151 94 207
2402526 Stephen Howe 2023-05-27 0207 360.5 MAK Mackel for Brussels Ntl BEL eu JO10rx 274 170 240
2401340 Stephen Howe 2023-05-27 0204 322 TLN Hyeres / Le Palyvestre FRA eu JN33ba 50 1025 637 183
2402513 Stephen Howe 2023-05-27 0159 327 LNZ Linz / Horsching AUT eu JN78df 689 428 127
2401122 John Collins 2023-05-27 0156 378 WSN Weser DEU eu JO43ki 184 114 46
2401120 John Collins 2023-05-27 0154 372 NOR Nordholz DEU eu JO43js 30 214 133 36
2402538 Stephen Howe 2023-05-27 0152 417 LI Dusseldorf DEU eu JO31ki 25 97 60 180
2401341 Stephen Howe 2023-05-27 0147 378 WSN Weser DEU eu JO43ki 184 114 46
2402542 Stephen Howe 2023-05-27 0142 428 TGM Targu Mures / Vidrasau ROU eu KN26dk 1412 877 110
2402541 Stephen Howe 2023-05-27 0139 426 MIQ Mike for Ingolstadt DEU eu JN58tn 529 328 138
2402528 Stephen Howe 2023-05-27 0130 370.5 LB Angelholm / Barkakra SWE eu JO66ji 598 371 37
2402529 Stephen Howe 2023-05-27 0130 371 MYN Munster / Osnabruck DEU eu JO32vd 25 63 39 98
2401119 John Collins 2023-05-27 0127 303 RTT Innsbruck / Rattenberg AUT eu JN57xk 645 401 143
2402517 Stephen Howe 2023-05-27 0127 335 WCO Westcott ENG eu IO91mu 537 334 268
2401124 John Collins 2023-05-27 0123 399.5 ONO Oostende BEL eu JO11lf 25 292 181 249
2402531 Stephen Howe 2023-05-27 0120 388 BR Lyon / Bron FRA eu JN25lo 750 466 191
2402537 Stephen Howe 2023-05-27 0114 406.5 BOT Bottrop DEU eu JO31mn 25 75 47 171
2402536 Stephen Howe 2023-05-27 0110 404 LRD Lerida ESP eu JN01hn 250 1276 793 204
2402535 Stephen Howe 2023-05-27 0105 400.5 COD Codogno (LO) ITA eu JN45sf 802 499 164
2357206 Bob Coomler 2022-11-27 0332 391 OKR Bratislava / M.R Stefanik / North SVK eu JN88pf 2000 863 536 116
2357202 Bob Coomler 2022-11-27 0326 388 BR Lyon / Bron FRA eu JN25lo 750 466 191
2357211 Bob Coomler 2022-11-27 0319 398 LRN Lorquin / Xouaxange FRA eu JN38lq 394 245 179
2357210 Bob Coomler 2022-11-27 0315 397 BLB Blois / Le Breuil FRA eu JN07oq 647 402 220
2357200 Bob Coomler 2022-11-27 0311 385 BO Zadar / Bokanjac HRV eu JN74pe 40 1089 676 141
2357199 Bob Coomler 2022-11-27 0310 385 NWT Leczyca POL eu JO91ox 842 523 87
2357203 Bob Coomler 2022-11-27 0308 389 PX Perigueux / Bassillac FRA eu JN05ke 25 898 558 211
2357201 Bob Coomler 2022-11-27 0306 388 COR Corner for Bromma SWE eu JO89rg 1023 636 35
2357204 Bob Coomler 2022-11-27 0305 390.5 ITR Istres / Le Tube FRA eu JN23lm 979 608 189
2357205 Bob Coomler 2022-11-27 0305 391 CC Chalon / Champforgeuil FRA eu JN26kr 628 390 194
2357207 Bob Coomler 2022-11-27 0304 392 AS Angers / Avrille FRA eu IN97wn 721 448 226
2357208 Bob Coomler 2022-11-27 0301 393 TAT Molde / Aro / Tautra NOR eu JP32kq 1163 723 0
2357209 Bob Coomler 2022-11-27 0301 394 NV Nevers / Fourchambault FRA eu JN16ow 645 401 205
2332909 John Collins 2022-08-29 0225 421 BUR Burnham ENG eu IO91pm 526 327 264
2332901 John Collins 2022-08-29 0207 414 BRI Bristol / Filton ENG eu IO81pj 665 413 265
2332900 John Collins 2022-08-29 0206 410 ETN Etain / Rouvres FRA eu JN29uf 10 344 213 194
2332887 John Collins 2022-08-29 0158 388 BR Lyon / Bron FRA eu JN25lo 750 466 191
2332859 John Collins 2022-08-29 0138 323 ONC Charleroi / Gosselies BEL eu JO20gl 25 253 157 220
2332917 John Collins 2022-08-28 2112 428 TGM Targu Mures / Vidrasau ROU eu KN26dk 1412 877 110
2332910 John Collins 2022-08-28 2106 422 OSJ Osijek HRV eu JN95lk 100 1160 721 125
2332908 John Collins 2022-08-28 2103 421 MF Halmstad SWE eu JO66jp 622 387 35
2332927 John Collins 2022-08-28 2052 488 NPR Tomaszow-Mazowiecki / Porter POL eu KO01bn 911 566 89
2332861 John Collins 2022-08-28 0200 333 G Kemi-Tornio / Marttala FIN eu KP25gs 1800 1118 26
2332858 John Collins 2022-08-28 0157 321 ABY Albert / Bray FRA eu JN19jx 379 236 230
2332849 John Collins 2022-08-28 0145 284.5 DY Dusseldorf DEU eu JO31if 25 112 69 185
2332850 John Collins 2022-08-28 0142 290 ONL Liege / Bierset BEL eu JO20sq 15 195 121 208
2332867 John Collins 2022-08-28 0137 352 LAA Niederrhein DEU eu JO31co 45 83 52 213
2332863 John Collins 2022-08-28 0134 342.5 NWI Norwich ENG eu JO02pq 5 382 237 279
2332904 John Collins 2022-08-28 0128 417 LI Dusseldorf DEU eu JO31ki 25 97 60 180
2332925 John Collins 2022-08-28 0121 468 FTZ Fritzlar DEU eu JO41pc 25 208 129 125
2332923 John Collins 2022-08-28 0116 445 TU Tuzla BIH eu JN94fl 50 1212 753 130
2332926 John Collins 2022-08-28 0113 488 ILM Illesheim DEU eu JN59el 392 244 139
2332924 John Collins 2022-08-28 0110 452 ANS Ansbach DEU eu JN59hh 418 260 139
2332922 John Collins 2022-08-28 0104 444 NRD Inowroclaw POL eu JO92eu 780 485 80
2332921 John Collins 2022-08-28 0059 438 KO Rijeka / Krk / Kozala HRV eu JN75fi 944 586 141
2332919 John Collins 2022-08-28 0054 432 PK Pardubice / Prvek CZE eu JO70va 668 415 108
2332918 John Collins 2022-08-28 0051 431 KBA Karlsruhe / Baden Baden DEU eu JN48bt 390 242 166
2332920 John Collins 2022-08-28 0051 433 CRE Cres HRV eu JN74fv 40 987 613 142
2332916 John Collins 2022-08-28 0049 428 CTX Chateauroux / Deols FRA eu JN06vw 50 693 430 213
2332913 John Collins 2022-08-28 0048 425 ERT Erfurt DEU eu JO50kx 309 192 115
2332915 John Collins 2022-08-28 0048 426 MIQ Mike for Ingolstadt DEU eu JN58tn 529 328 138
2332914 John Collins 2022-08-28 0046 426 GBG Gleichenberg for Graz AUT eu JN76vv 100 874 543 129
2332912 John Collins 2022-08-28 0044 424 PHG Phalsbourg / Bourscheid FRA eu JN38os 385 239 176
2332911 John Collins 2022-08-28 0043 423 FE Odense / Beldringe DNK eu JO55fm 435 270 31
2332907 John Collins 2022-08-28 0042 421 SAL Zadar / Sali HRV eu JN73ow 40 1109 689 142
2332906 John Collins 2022-08-28 0041 419 EMT Epinal / Mirecourt FRA eu JN38ch 438 272 186
2332902 John Collins 2022-08-28 0040 416 POZ Beograd / Pozarevac SRB eu KN04no 40 1347 837 123
2332903 John Collins 2022-08-28 0039 417 AX Auxerre / Branches FRA eu JN17sw 533 331 207
2332905 John Collins 2022-08-28 0039 418 MK Calais / Dunkerque FRA eu JO10ax 361 225 249
2332899 John Collins 2022-08-28 0036 408 BRK Wien / Schwechat / Bruck AUT eu JN88ib 839 521 119
2332895 John Collins 2022-08-28 0024 401 RBU Roros / Rambu NOR eu JP52sm 1177 731 11
2332894 John Collins 2022-08-28 0023 400.5 COD Codogno (LO) ITA eu JN45sf 802 499 164
2332892 John Collins 2022-08-28 0022 399 KMN Burgas / Kamenar BUL eu KN32tp 1879 1167 116
2332897 John Collins 2022-08-28 0016 403 LPS Les Eplatures SUI eu JN37jb 575 357 180
2332896 John Collins 2022-08-28 0015 402 OP Brussels National BEL eu JO20hw 212 131 228
2332893 John Collins 2022-08-28 0014 399.5 ONO Oostende BEL eu JO11lf 25 292 181 249
2332891 John Collins 2022-08-28 0013 398 LRN Lorquin / Xouaxange FRA eu JN38lq 394 245 179
2332884 John Collins 2022-08-28 0010 385 BO Zadar / Bokanjac HRV eu JN74pe 40 1089 676 141
2332885 John Collins 2022-08-28 0004 386.5 SLV Spa / La Sauveniere BEL eu JO20wl 15 207 128 200
2332898 John Collins 2022-08-27 2025 406.5 BOT Bottrop DEU eu JO31mn 25 75 47 171
2332869 John Collins 2022-08-27 2013 354 PAD Paderborn / Lippstadt DEU eu JO41ho 25 139 86 119
2332856 John Collins 2022-08-27 0147 320 HA Hannover / East DEU eu JO42vl 25 200 124 80
2332855 John Collins 2022-08-27 0140 318 HIG Bremen DEU eu JO43kb 25 164 102 54
2332877 John Collins 2022-08-27 0127 368.5 ELU Luxembourg-Berg LUX eu JN39eq 15 285 177 187
2332890 John Collins 2022-08-27 0124 391 BV Beauvais / Tille FRA eu JN19al 20 457 284 229
2332889 John Collins 2022-08-27 0121 390.5 ITR Istres / Le Tube FRA eu JN23lm 979 608 189
2332888 John Collins 2022-08-27 0120 389 PX Perigueux / Bassillac FRA eu JN05ke 25 898 558 211
2332886 John Collins 2022-08-27 0117 387 RZ Rodez / Marcillac FRA eu JN14fk 925 575 202
2332883 John Collins 2022-08-27 0116 383 MAR Marseille / Provence FRA eu JN23nl 25 982 610 188
2332879 John Collins 2022-08-27 0113 376.5 ORI Orio al Serio (BG) ITA eu JN45wp 25 764 475 162
2332882 John Collins 2022-08-27 0109 382 FW Frankfurt / Raunheim DEU eu JO40fa 25 269 167 155
2332881 John Collins 2022-08-27 0106 382 SBG Salzburg / Oberndorf AUT eu JN67kx 50 637 396 135
2332880 John Collins 2022-08-27 0105 378 WSN Weser DEU eu JO43ki 184 114 46
2332873 John Collins 2022-08-27 0057 360.5 MAK Mackel for Brussels Ntl BEL eu JO10rx 274 170 240
2332857 John Collins 2022-08-27 0054 321 TL Tarbes / Ossun / Lourdes FRA eu JN03ag 100 1118 695 209
2332862 John Collins 2022-08-27 0046 337 MY Myggenaes FRO eu IP62ec 1397 868 327
2332864 John Collins 2022-08-27 0044 347 CVT Chalons / Vatry FRA eu JN28ds 426 264 206
2332865 John Collins 2022-08-27 0043 348 SAD Leknes / Sandsund NOR eu JP68tc 1802 1119 9
2332866 John Collins 2022-08-27 0041 349.5 SZA Solenzara COR eu JN41qw 25 1160 721 169
2332868 John Collins 2022-08-27 0040 354 MTZ Metz / Nancy-Lorraine FRA eu JN39cg 332 206 188
2332870 John Collins 2022-08-27 0039 355 ONW Antwerpen / Deurne BEL eu JO21ge 198 123 235
2332872 John Collins 2022-08-27 0038 358 HW Hannover / West DEU eu JO42sl 25 183 114 80
2332871 John Collins 2022-08-27 0037 357 SKZ Leipzig / Halle DEU eu JO61dj 384 238 101
2332876 John Collins 2022-08-27 0035 368 BYC Buckeburg DEU eu JO42ng 153 95 87
2332875 John Collins 2022-08-27 0033 367 VAT Chalon / Vatry FRA eu JN28at 429 267 208
2332874 John Collins 2022-08-27 0032 365 LJ Koln / Bonn DEU eu JO30mw 25 144 90 175
2332851 John Collins 2022-08-27 0028 303 RTT Innsbruck / Rattenberg AUT eu JN57xk 645 401 143
2332854 John Collins 2022-08-27 0028 318 LE Luxembourg-Est LUX eu JN39dp 290 180 188
2332860 John Collins 2022-08-27 0027 327 LNZ Linz / Horsching AUT eu JN78df 689 428 127
2332852 John Collins 2022-08-27 0024 307 DIK Diekirch LUX eu JN39bu 269 167 191
2332878 John Collins 2022-08-26 2054 371 MYN Munster / Osnabruck DEU eu JO32vd 25 63 39 98
2332853 John Collins 2022-08-26 2049 311 LMA Lima / Bruggen DEU eu JO31ei 25 103 64 199
1581952 2019-03-25 0126 384 ADX Andraitx for Palma de Mallorca BAL eu JM19en 1450 901 195
1581948 2019-03-25 0124 383 ALD Alderney GSY eu IN89vr 50 693 431 249
1581959 2019-03-25 0117 389 ZRZ Zaragoza ESP eu IN91jr 300 1317 818 210
1581966 2019-03-25 0112 399 EAG Logrono / Agoncillo ESP eu IN82uk 25 1287 800 215
1581972 2019-03-25 0058 404 MRV Merville / Calonne FRA eu JO10iq 336 209 240
1581975 2019-03-25 0057 408 BRK Wien / Schwechat / Bruck AUT eu JN88ib 839 521 119
1581980 2019-03-25 0056 414 BRI Bristol / Filton ENG eu IO81pj 665 413 265
1581978 2019-03-25 0054 412 PP Pecs / Pogany HNG eu JN96ca 1073 667 125
1581974 2019-03-25 0052 406 MJ Marseille / Provence FRA eu JN23ok 25 985 612 187
1581973 2019-03-25 0052 406 BHX Birmingham ENG eu IO92ck 25 589 366 275
1581977 2019-03-25 0049 410 SI Salzburg AUT eu JN67lt 655 407 136
1581976 2019-03-25 0049 409 SG Satenas / Tune SWE eu JO68ij 778 483 25
1581979 2019-03-25 0046 413.5 DLS Berlin / Tempelhof / Lubars DEU eu JO62qo 50 443 275 82
1581982 2019-03-25 0044 416 POZ Beograd / Pozarevac SRB eu KN04no 40 1347 837 123
1581994 2019-03-25 0030 423 ZO Nis / Zitoradja SRB eu KN03ue 1492 927 126
1582004 2019-03-25 0026 438 KO Rijeka / Krk / Kozala HRV eu JN75fi 944 586 141
1582003 2019-03-25 0016 433.5 HEN Henton ENG eu IO91os 25 527 327 267
1582059 2019-03-25 0005 424 PIS Zagreb / Pleso / Pisarovina HRV eu JN75wo 986 613 134
1582050 2019-03-25 0004 409 SG Satenas / Tune SWE eu JO68ij 778 483 25
1582049 2019-03-25 0003 408 BRK Wien / Schwechat / Bruck AUT eu JN88ib 839 521 119
1582047 2019-03-25 0000 400.5 COD Codogno (LO) ITA eu JN45sf 802 499 164
1581996 2019-03-24 2322 424 PHG Phalsbourg / Bourscheid FRA eu JN38os 385 239 176
1581988 2019-03-24 2321 420 GS Pula HRV eu JN64wv 963 599 145
1581985 2019-03-24 2318 417 AX Auxerre / Branches FRA eu JN17sw 533 331 207
1581987 2019-03-24 2316 420 INN Innsbruck AUT eu JN57qf 40 643 399 148
1581991 2019-03-24 2316 421 BUR Burnham ENG eu IO91pm 526 327 264
1582028 2019-03-24 2315 351.5 PLA Pula HRV eu JN64vv 2000 960 597 145
1582027 2019-03-24 2315 350 FU Hamburg West DEU eu JO43xo 25 257 160 52
1581971 2019-03-24 2314 403 NM Mora / Slijan SWE eu JP71fa 1080 671 22
1581969 2019-03-24 2313 401 RBU Roros / Rambu NOR eu JP52sm 1177 731 11
1581968 2019-03-24 2312 400 EN Orebro SWE eu JO79mg 933 580 29
1581965 2019-03-24 2311 399 FM Trollhattan / Vanersborg SWE eu JO68di 762 473 24
1582063 2019-03-24 2311 434 MV Melun / Villaroche FRA eu JN18ln 493 306 215
1582070 2019-03-24 2309 517 ARD Arad ROU eu KN06ne 1231 765 117
1582066 2019-03-24 2304 488 ILM Illesheim DEU eu JN59el 392 244 139
1582065 2019-03-24 2302 485 IA Indija SRB eu KN05ab 60 1250 777 124
1582068 2019-03-24 2259 492 TBV Moravska / Trebova CZE eu JN89it 738 458 107
1582046 2019-03-24 2257 399.5 ONO Oostende BEL eu JO11lf 25 292 181 249
1582064 2019-03-24 2223 468 FTZ Fritzlar DEU eu JO41pc 25 208 129 125
1582061 2019-03-24 2221 431 KBA Karlsruhe / Baden Baden DEU eu JN48bt 390 242 166
1582069 2019-03-24 2216 514.5 LA Namest Nad Oslavou CZE eu JN89cd 741 460 113
1582067 2019-03-24 2215 488 NPR Tomaszow-Mazowiecki / Porter POL eu KO01bn 911 566 89
1582044 2019-03-24 2210 397 EHN Eindhoven HOL eu JO21ql 15 133 82 231
1582043 2019-03-24 2208 387 ING St. Inglevert FRA eu JO00uv 25 387 240 249
1582042 2019-03-24 2206 382 SBG Salzburg / Oberndorf AUT eu JN67kx 50 637 396 135
1582039 2019-03-24 2203 372 ODR Kristiansand / Kjevik / Odderoy NOR eu JO38xd 661 411 5
1582037 2019-03-24 2201 366 UTH Orland / Uthaug NOR eu JP43sr 1288 800 5
1582024 2019-03-24 2155 345.5 CF Caslav / Chotusice / Centograf CZE eu JN79rv 653 406 110
1582022 2019-03-24 2152 340 HAW Hawarden WLS eu IO83me 670 417 283
1582045 2019-03-24 2148 398 LRN Lorquin / Xouaxange FRA eu JN38lq 394 245 179
1582056 2019-03-24 2117 421 MF Halmstad SWE eu JO66jp 622 387 35
1582057 2019-03-24 2116 423 FE Odense / Beldringe DNK eu JO55fm 435 270 31
1582051 2019-03-24 2115 410 SI Salzburg AUT eu JN67lt 655 407 136
1582054 2019-03-24 2112 418 MK Calais / Dunkerque FRA eu JO10ax 361 225 249
1582060 2019-03-24 2109 426 GBG Gleichenberg for Graz AUT eu JN76vv 100 874 543 129
1582040 2019-03-24 2101 375 GLA Gland for Geneva / Cointrain SUI eu JN36cj 650 404 184
1582062 2019-03-24 2058 433 CRE Cres HRV eu JN74fv 40 987 613 142
1582058 2019-03-24 2056 424 PHG Phalsbourg / Bourscheid FRA eu JN38os 385 239 176
1582055 2019-03-24 2056 419 EMT Epinal / Mirecourt FRA eu JN38ch 438 272 186
1582052 2019-03-24 2054 416 POZ Beograd / Pozarevac SRB eu KN04no 40 1347 837 123
1582041 2019-03-24 2053 376 HAN Hahn DEU eu JN39px 25 252 156 173
1582035 2019-03-24 2049 360 SR Saarbrucken / Ensheim DEU eu JN39of 25 334 208 175
1582036 2019-03-24 2049 360.5 MAK Mackel for Brussels Ntl BEL eu JO10rx 274 170 240
1582030 2019-03-24 2047 354 MTZ Metz / Nancy-Lorraine FRA eu JN39cg 332 206 188
1582025 2019-03-24 2046 346 WLU Luxembourg LUX eu JN39an 15 302 188 191
1582026 2019-03-24 2044 347 CVT Chalons / Vatry FRA eu JN28ds 426 264 206
1582023 2019-03-24 2042 342.5 NWI Norwich ENG eu JO02pq 5 382 237 279
1582021 2019-03-24 2041 333.5 VOG Voghera (PV) ITA eu JN44lx 820 510 168
1582020 2019-03-24 2037 327 MVC Merville / Calonne FRA eu JO10hn 348 216 239
1582018 2019-03-24 1538 290 ONL Liege / Bierset BEL eu JO20sq 15 195 121 208
1582032 2019-03-24 1535 355 ONW Antwerpen / Deurne BEL eu JO21ge 198 123 235
1582053 2019-03-24 1521 417 LI Dusseldorf DEU eu JO31ki 25 97 60 180
1582031 2019-03-24 1219 354 PAD Paderborn / Lippstadt DEU eu JO41ho 25 139 86 119
1582029 2019-03-24 1218 352 LAA Niederrhein DEU eu JO31co 45 83 52 213
1582048 2019-03-24 1216 406.5 BOT Bottrop DEU eu JO31mn 25 75 47 171
1582034 2019-03-24 1214 357 VZ Eelde / Groningen HOL eu JO33ea 94 59 339
1582019 2019-03-24 1213 311 LMA Lima / Bruggen DEU eu JO31ei 25 103 64 199
1582033 2019-03-24 1209 357 DWI Dortmund / Wickede DEU eu JO31tm 94 58 146
1582038 2019-03-24 1209 371 MYN Munster / Osnabruck DEU eu JO32vd 25 63 39 98
1581910 2019-03-24 0311 310 TRL Troll Platform XOE iw JP10up 956 594 349
1581911 2019-03-24 0308 312 BOZ Bozhurishte BUL eu KN12os 1609 1000 124
1581912 2019-03-24 0259 316 EPM Epsom for Heathrow ENG eu IO91th 25 509 316 261
1581913 2019-03-24 0257 317 OZ Kardla EST eu KO18kw 1247 775 47
1581916 2019-03-24 0255 318 AGB Augsburg DEU eu JN58lk 25 511 318 143
1581915 2019-03-24 0255 318 KLP Dubrovnik / Kolocep HRV eu JN92aq 50 1350 839 137
1581920 2019-03-24 0249 325 RCA Reggio di Calabria (RC) ITA eu JM78ta 110 1720 1068 153
1581918 2019-03-24 0245 321 VO Vojens / Skrydstrup DNK eu JO45pf 369 230 24
1581929 2019-03-24 0232 337 VRN Vranje SRB eu KN02wn 40 1553 965 127
1581930 2019-03-24 0229 338 TIM Timisoara ROU eu KN05ol 1286 799 120
1581931 2019-03-24 0223 340 BLK Banja Luka BIH eu JN85pc 40 1099 683 131
1581928 2019-03-24 0220 337 WTN Warton ENG eu IO83ns 674 419 288
1581927 2019-03-24 0217 337 MY Myggenaes FRO eu IP62ec 1397 868 327
1581926 2019-03-24 0215 335 BER Bern / Belp SUI eu JN36sv 595 370 175
1581919 2019-03-24 0207 323 ONC Charleroi / Gosselies BEL eu JO20gl 25 253 157 220
1581922 2019-03-24 0156 332 NV Amsterdam / Schiphol HOL eu JO22jd 15 142 88 267
1581411 2019-03-23 2045 352 LAA Niederrhein DEU eu JO31co 45 83 52 213
1581419 2019-03-23 0211 372 ODR Kristiansand / Kjevik / Odderoy NOR eu JO38xd 661 411 5
1581421 2019-03-23 0205 393 TAT Molde / Aro / Tautra NOR eu JP32kq 1163 723 0
1581439 2019-03-23 0156 452 ANS Ansbach DEU eu JN59hh 418 260 139
1581440 2019-03-23 0155 468 FTZ Fritzlar DEU eu JO41pc 25 208 129 125
1581951 2019-03-23 0145 384 IAS Iasi ROU eu KN37td 1589 987 102
1581957 2019-03-23 0139 387 CML Clonmel IRL eu IO62gk 50 973 604 277
1581947 2019-03-23 0136 383 ERK Erken SWE eu JO99ev 1109 689 35
1581949 2019-03-23 0136 383.5 GUL Gulpen HOL eu JO20wt 15 172 107 204
1581946 2019-03-23 0136 382 SBG Salzburg / Oberndorf AUT eu JN67kx 50 637 396 135
1581942 2019-03-23 0135 379 PIS Pisa (PI) ITA eu JN53do 25 992 616 163
1581940 2019-03-23 0130 376 HP Esbjerg DNK eu JO45em 379 235 14
1581519 2019-03-23 0128 426 MIQ Mike for Ingolstadt DEU eu JN58tn 529 328 138
1581516 2019-03-23 0123 423 ZO Nis / Zitoradja SRB eu KN03ue 1492 927 126
1581511 2019-03-23 0122 417 AX Auxerre / Branches FRA eu JN17sw 533 331 207
1581908 2019-03-23 0121 290 ONL Liege / Bierset BEL eu JO20sq 15 195 121 208
1581492 2019-03-23 0115 387 ING St. Inglevert FRA eu JO00uv 25 387 240 249
1581496 2019-03-23 0113 392 AS Angers / Avrille FRA eu IN97wn 721 448 226
1581481 2019-03-23 0111 375 CHO Chociwel POL eu JO73pl 582 361 72
1581963 2019-03-23 0109 395 FOY Foynes for Shannon IRL eu IO52jn 50 1090 677 278
1581467 2019-03-23 0108 354 MTZ Metz / Nancy-Lorraine FRA eu JN39cg 332 206 188
1581967 2019-03-23 0107 399.5 ONO Oostende BEL eu JO11lf 25 292 181 249
1581462 2019-03-23 0106 350 FU Hamburg West DEU eu JO43xo 25 257 160 52
1581970 2019-03-23 0105 402.5 LBA Leeds / Bradford ENG eu IO93eu 45 596 370 291
1581493 2019-03-23 0056 387 CML Clonmel IRL eu IO62gk 50 973 604 277
1581494 2019-03-23 0056 388 COR Corner for Bromma SWE eu JO89rg 1023 636 35
1581990 2019-03-23 0056 421 FN Fiumicino (RM) ITA eu JN61cv 1217 756 158
1581989 2019-03-23 0055 421 GE Madrid / Grinon ESP eu IN80be 1570 976 215
1581506 2019-03-23 0054 408 BRK Wien / Schwechat / Bruck AUT eu JN88ib 839 521 119
1581531 2019-03-23 0050 514 GO Amari Air Base EST eu KO29dg 1335 830 47
1581933 2019-03-23 0050 360 LA Kraljevo SRB eu KN03gu 1374 854 127
1581934 2019-03-23 0049 360.5 MAK Mackel for Brussels Ntl BEL eu JO10rx 274 170 240
1581932 2019-03-23 0042 359 BUZ Buzzard / Nexen Platform XOE iw IO97lu 802 499 324
1581534 2019-03-23 0042 840 KR Kaliningrad / Khrabovo KAL eu KO04iv 959 596 66
1581936 2019-03-23 0039 368 WTD Waterford IRL eu IO62le 947 588 275
1581935 2019-03-23 0038 368 UW Edinburgh SCT eu IO85fv 791 492 305
1581535 2019-03-23 0035 1290 TU Bely RUS eu KO65lu 1739 1080 66
1581533 2019-03-23 0030 521 BSW Bucuresti / Baneasa ROU eu KN24xl 1645 1022 113
1581532 2019-03-23 0029 517 ARD Arad ROU eu KN06ne 1231 765 117
1581529 2019-03-23 0028 488 ILM Illesheim DEU eu JN59el 392 244 139
1581526 2019-03-23 0026 445 TU Tuzla BIH eu JN94fl 50 1212 753 130
1581518 2019-03-23 0024 424 PHG Phalsbourg / Bourscheid FRA eu JN38os 385 239 176
1581521 2019-03-23 0023 430 SN St Yan FRA eu JN26bh 687 427 197
1581513 2019-03-23 0023 418 MK Calais / Dunkerque FRA eu JO10ax 361 225 249
1581510 2019-03-23 0023 417 LI Dusseldorf DEU eu JO31ki 25 97 60 180
1581512 2019-03-23 0022 417 AH Angelholm / Barkakra SWE eu JO66kg 594 369 38
1581504 2019-03-23 0020 404 MRV Merville / Calonne FRA eu JO10iq 336 209 240
1581322 2019-03-23 0020 397 BLB Blois / Le Breuil FRA eu JN07oq 647 402 220
1581499 2019-03-23 0019 394 DND Dundee SCT eu IO86kk 25 798 496 309
1581498 2019-03-23 0017 393 TAT Molde / Aro / Tautra NOR eu JP32kq 1163 723 0
1581284 2019-03-23 0015 331 GST Gloucester ENG eu IO81vv 12 622 386 270
1581488 2019-03-23 0015 383 ERK Erken SWE eu JO99ev 1109 689 35
1581285 2019-03-23 0014 332 LL Lille / Lesquin FRA eu JO10on 315 196 235
1581480 2019-03-23 0014 374.5 ANC Ancona (AN) ITA eu JN63ro 35 1076 669 150
1581479 2019-03-23 0013 373 NW Maastricht / Beek HOL eu JO21wa 15 151 94 207
1581286 2019-03-23 0013 333.5 VOG Voghera (PV) ITA eu JN44lx 820 510 168
1581287 2019-03-23 0013 335 WCO Westcott ENG eu IO91mu 537 334 268
1581475 2019-03-23 0012 368.5 ELU Luxembourg-Berg LUX eu JN39eq 15 285 177 187
1581288 2019-03-23 0011 338 OA Jonkoping SWE eu JO77bt 773 480 33
1581289 2019-03-23 0009 342 LL Leirin / Fagernes NOR eu JP41pa 988 614 7
1581290 2019-03-23 0009 344 WCK Wick SCT eu IO88lk 25 931 578 321
1581466 2019-03-23 0009 353 KIL Kiel / Holtenau DEU eu JO54bi 25 320 199 41
1581291 2019-03-23 0008 345.5 CF Caslav / Chotusice / Centograf CZE eu JN79rv 653 406 110
1581292 2019-03-23 0008 347 CVT Chalons / Vatry FRA eu JN28ds 426 264 206
1581293 2019-03-23 0007 349 JX Vaxjo / Kronoberg SWE eu JO76jx 733 456 40
1581459 2019-03-23 0007 343 KUS Kaunas / Karmelava LTU eu KO24bx 100 1175 730 68
1581294 2019-03-23 0006 349.5 SZA Solenzara COR eu JN41qw 25 1160 721 169
1581276 2019-03-23 0005 277 CHT Chiltern ENG eu IO91ro 25 513 319 265
1581451 2019-03-23 0005 319 VAR Stavanger / Sola / Varhaug NOR eu JO28tp 25 718 446 354
1581449 2019-03-23 0004 315 HOL Villacoublay / Velizy FRA eu JN08vr 25 530 329 224
1581297 2019-03-23 0003 351 OV Visby SWE eu JO97er 953 592 45
1581450 2019-03-23 0002 316 TNJ Tounj HRV eu JN75qg 992 616 137
1581298 2019-03-23 0002 351.5 PLA Pula HRV eu JN64vv 2000 960 597 145
1581445 2019-03-22 2359 265 KAV Pula / Kavran HRV eu JN74av 50 970 603 144
1581452 2019-03-22 2356 327 LNZ Linz / Horsching AUT eu JN78df 689 428 127
1581375 2019-03-22 2355 517 ARD Arad ROU eu KN06ne 1231 765 117
1581374 2019-03-22 2354 508 Z Zilina / Hlinik SVK eu JN99hf 890 553 107
1581455 2019-03-22 2353 335 WCO Westcott ENG eu IO91mu 537 334 268
1581373 2019-03-22 2353 490 WAK Vakarel BUL eu KN12un 1654 1028 123
1581372 2019-03-22 2352 489 NK Poznan / Krzesiny / Kamera POL eu JO82lh 686 426 85
1581457 2019-03-22 2352 342 LL Leirin / Fagernes NOR eu JP41pa 988 614 7
1581371 2019-03-22 2351 488 ILM Illesheim DEU eu JN59el 392 244 139
1581461 2019-03-22 2351 349 JX Vaxjo / Kronoberg SWE eu JO76jx 733 456 40
1581369 2019-03-22 2350 468 FTZ Fritzlar DEU eu JO41pc 25 208 129 125
1581463 2019-03-22 2349 351 OV Visby SWE eu JO97er 953 592 45
1581464 2019-03-22 2348 351.5 PLA Pula HRV eu JN64vv 2000 960 597 145
1581472 2019-03-22 2346 366 UTH Orland / Uthaug NOR eu JP43sr 1288 800 5
1581368 2019-03-22 2346 452 ANS Ansbach DEU eu JN59hh 418 260 139
1581473 2019-03-22 2346 366 KM Kalmar SWE eu JO86cr 782 486 46
1581474 2019-03-22 2345 368 BYC Buckeburg DEU eu JO42ng 153 95 87
1581478 2019-03-22 2344 372 ODR Kristiansand / Kjevik / Odderoy NOR eu JO38xd 661 411 5
1581482 2019-03-22 2343 376 HAN Hahn DEU eu JN39px 25 252 156 173
1581370 2019-03-22 2343 485 IA Indija SRB eu KN05ab 60 1250 777 124
1581367 2019-03-22 2342 438 K Praha Kbely / Kalda CZE eu JO70gd 582 362 110
1581365 2019-03-22 2342 438 PE Poprad / Tatry East SVK eu KN09fb 1018 633 104
1581366 2019-03-22 2341 438 KO Rijeka / Krk / Kozala HRV eu JN75fi 944 586 141
1581484 2019-03-22 2341 378 RSY Stavanger / Sola / Rennesoy NOR eu JO29td 773 480 354
1581363 2019-03-22 2340 433.5 HEN Henton ENG eu IO91os 25 527 327 267
1581364 2019-03-22 2339 434 MV Melun / Villaroche FRA eu JN18ln 493 306 215
1581486 2019-03-22 2339 380 VNV Vilanova i la Geltru ESP eu JN01uf 1284 798 199
1581362 2019-03-22 2338 433 CRE Cres HRV eu JN74fv 40 987 613 142
1581489 2019-03-22 2338 384 AT Annecy / Meythet FRA eu JN35au 711 442 185
1581495 2019-03-22 2335 390 AVI Aviano (PN) ITA eu JN65fw 35 809 502 147
1581497 2019-03-22 2334 392.5 TOP Torino / Poirino (TO) ITA eu JN34ww 814 506 174
1581361 2019-03-22 2334 428 MUS Nice / Cote d'Azur FRA eu JN33hj 40 982 610 181
1581500 2019-03-22 2333 397 EHN Eindhoven HOL eu JO21ql 15 133 82 231
1581360 2019-03-22 2333 427 LUE Kramfors / Lunde SWE eu JP82vv 1349 838 24
1581502 2019-03-22 2332 398 LPD Montlucon / Gueret FRA eu JN16eh 734 456 208
1581509 2019-03-22 2329 416 POZ Beograd / Pozarevac SRB eu KN04no 40 1347 837 123
1581359 2019-03-22 2329 426 GBG Gleichenberg for Graz AUT eu JN76vv 100 874 543 129
1581358 2019-03-22 2328 425 ERT Erfurt DEU eu JO50kx 309 192 115
1581357 2019-03-22 2328 425 MMP Gallarate / Malpensa (VA) ITA eu JN45ip 744 462 168
1581524 2019-03-22 2328 433.5 HEN Henton ENG eu IO91os 25 527 327 267
1581522 2019-03-22 2328 432 PK Pardubice / Prvek CZE eu JO70va 668 415 108
1581527 2019-03-22 2323 448 HLV Holesov CZE eu JN89sh 816 507 109
1581356 2019-03-22 2320 424 PIS Zagreb / Pleso / Pisarovina HRV eu JN75wo 986 613 134
1581355 2019-03-22 2317 423 CWL Cranwell ENG eu IO93sa 5 502 312 282
1581354 2019-03-22 2316 423 FE Odense / Beldringe DNK eu JO55fm 435 270 31
1581353 2019-03-22 2315 422 OSJ Osijek HRV eu JN95lk 100 1160 721 125
1581351 2019-03-22 2314 421 MF Halmstad SWE eu JO66jp 622 387 35
1581352 2019-03-22 2314 421 BL Borlange / Rommehed / Falun SWE eu JP70ql 1054 655 26
1581530 2019-03-22 2314 492 TBV Moravska / Trebova CZE eu JN89it 738 458 107
1581349 2019-03-22 2313 420 INN Innsbruck AUT eu JN57qf 40 643 399 148
1581350 2019-03-22 2312 420 GS Pula HRV eu JN64wv 963 599 145
1581528 2019-03-22 2312 468 FTZ Fritzlar DEU eu JO41pc 25 208 129 125
1581347 2019-03-22 2311 418 MK Calais / Dunkerque FRA eu JO10ax 361 225 249
1581525 2019-03-22 2310 438 PE Poprad / Tatry East SVK eu KN09fb 1018 633 104
1581348 2019-03-22 2310 419 RD Vasteras / Hasslo SWE eu JO89hm 1011 628 32
1581523 2019-03-22 2308 433 CRE Cres HRV eu JN74fv 40 987 613 142
1581520 2019-03-22 2307 426 GBG Gleichenberg for Graz AUT eu JN76vv 100 874 543 129
1581517 2019-03-22 2306 424 PIS Zagreb / Pleso / Pisarovina HRV eu JN75wo 986 613 134
1581345 2019-03-22 2306 417 AX Auxerre / Branches FRA eu JN17sw 533 331 207
1581346 2019-03-22 2306 417 AH Angelholm / Barkakra SWE eu JO66kg 594 369 38
1581515 2019-03-22 2305 421 MF Halmstad SWE eu JO66jp 622 387 35
1581344 2019-03-22 2305 417 VIC Vicenza (VI) ITA eu JN55up 25 812 505 152
1581514 2019-03-22 2304 419 EMT Epinal / Mirecourt FRA eu JN38ch 438 272 186
1581508 2019-03-22 2302 413.5 DLS Berlin / Tempelhof / Lubars DEU eu JO62qo 50 443 275 82
1581505 2019-03-22 2301 406.5 BOT Bottrop DEU eu JO31mn 25 75 47 171
1581507 2019-03-22 2301 409 SG Satenas / Tune SWE eu JO68ij 778 483 25
1581503 2019-03-22 2300 400.5 COD Codogno (LO) ITA eu JN45sf 802 499 164
1581501 2019-03-22 2300 398 PEO Stockhlom / Skavsta / Peola SWE eu JO88mt 970 603 37
1581491 2019-03-22 2256 386 RAK Rakovnik CZE eu JO60uc 532 330 113
1581490 2019-03-22 2255 386 LNE Milano / Linate (MI) ITA eu JN45pi 785 487 166
1581487 2019-03-22 2252 382 SBG Salzburg / Oberndorf AUT eu JN67kx 50 637 396 135
1581485 2019-03-22 2251 379 PIS Pisa (PI) ITA eu JN53do 25 992 616 163
1581483 2019-03-22 2249 376.5 ORI Orio al Serio (BG) ITA eu JN45wp 25 764 475 162
1581476 2019-03-22 2248 370 BSV Besancon / La Veze FRA eu JN37cg 553 344 185
1581477 2019-03-22 2247 371 MYN Munster / Osnabruck DEU eu JO32vd 25 63 39 98
1581471 2019-03-22 2245 363 OEM Kristianstad / Everod SWE eu JO75bx 630 391 45
1581470 2019-03-22 2244 360.5 MAK Mackel for Brussels Ntl BEL eu JO10rx 274 170 240
1581469 2019-03-22 2243 357 DWI Dortmund / Wickede DEU eu JO31tm 94 58 146
1581468 2019-03-22 2243 355 ONW Antwerpen / Deurne BEL eu JO21ge 198 123 235
1581465 2019-03-22 2242 352 LAA Niederrhein DEU eu JO31co 45 83 52 213
1581460 2019-03-22 2240 347 CVT Chalons / Vatry FRA eu JN28ds 426 264 206
1581458 2019-03-22 2237 342.5 NWI Norwich ENG eu JO02pq 5 382 237 279
1581456 2019-03-22 2235 338 OA Jonkoping SWE eu JO77bt 773 480 33
1581454 2019-03-22 2235 334 MR Maribor SVN eu JN76vi 49 918 570 131
1581453 2019-03-22 2234 333.5 VOG Voghera (PV) ITA eu JN44lx 820 510 168
1581443 2019-03-22 2230 492 TBV Moravska / Trebova CZE eu JN89it 738 458 107
1581448 2019-03-22 2230 311 LMA Lima / Bruggen DEU eu JO31ei 25 103 64 199
1581441 2019-03-22 2229 488 NPR Tomaszow-Mazowiecki / Porter POL eu KO01bn 911 566 89
1581446 2019-03-22 2228 290 ONL Liege / Bierset BEL eu JO20sq 15 195 121 208
1581447 2019-03-22 2225 307 DIK Diekirch LUX eu JN39bu 269 167 191
1581437 2019-03-22 2212 434 MV Melun / Villaroche FRA eu JN18ln 493 306 215
1581430 2019-03-22 2209 417 AX Auxerre / Branches FRA eu JN17sw 533 331 207
1581431 2019-03-22 2207 419 EMT Epinal / Mirecourt FRA eu JN38ch 438 272 186
1581426 2019-03-22 2203 408 BRK Wien / Schwechat / Bruck AUT eu JN88ib 839 521 119
1581424 2019-03-22 2202 404 MRV Merville / Calonne FRA eu JO10iq 336 209 240
1581422 2019-03-22 2201 398 LRN Lorquin / Xouaxange FRA eu JN38lq 394 245 179
1581423 2019-03-22 2159 399.5 ONO Oostende BEL eu JO11lf 25 292 181 249
1581410 2019-03-22 2156 347 CVT Chalons / Vatry FRA eu JN28ds 426 264 206
1581409 2019-03-22 2152 342 LL Leirin / Fagernes NOR eu JP41pa 988 614 7
1581340 2019-03-22 2152 415 TOE Toulouse / Blagnac FRA eu JN03ul 15 1046 650 203
1581343 2019-03-22 2151 416 KUN Kunovice CZE eu JN89sc 827 514 110
1581342 2019-03-22 2151 416 POZ Beograd / Pozarevac SRB eu KN04no 40 1347 837 123
1581341 2019-03-22 2150 415 OL Linkoping / Saab SWE eu JO78vj 886 551 35
1581338 2019-03-22 2149 412 PP Pecs / Pogany HNG eu JN96ca 1073 667 125
1581339 2019-03-22 2147 413.5 DLS Berlin / Tempelhof / Lubars DEU eu JO62qo 50 443 275 82
1581408 2019-03-22 2147 333.5 VOG Voghera (PV) ITA eu JN44lx 820 510 168
1581407 2019-03-22 2146 327 LNZ Linz / Horsching AUT eu JN78df 689 428 127
1581945 2019-03-22 2144 382 GAZ Gazoldo degli Ippoliti (MN) ITA eu JN55he 25 830 515 159
1581337 2019-03-22 2140 410 ETN Etain / Rouvres FRA eu JN29uf 10 344 213 194
1581944 2019-03-22 2139 381 TEST UNID XUU xx
1581336 2019-03-22 2139 409 SG Satenas / Tune SWE eu JO68ij 778 483 25
1581943 2019-03-22 2137 381 SIB Sibiu / Turnisor ROU eu KN25bs 1444 897 112
1581335 2019-03-22 2136 408 BRK Wien / Schwechat / Bruck AUT eu JN88ib 839 521 119
1581334 2019-03-22 2135 407 LUP Laupheim DEU eu JN48wf 30 493 306 153
1581950 2019-03-22 2128 384 TL Aarhus DNK eu JO56hh 515 320 26
1581953 2019-03-22 2126 385 NWT Leczyca POL eu JO91ox 842 523 87
1581937 2019-03-22 2123 369 VRS Vrsar HRV eu JN65tf 922 573 144
1581938 2019-03-22 2121 372 ODR Kristiansand / Kjevik / Odderoy NOR eu JO38xd 661 411 5
1581331 2019-03-22 2120 404 VNG Vangsnes NOR eu JP31hd 992 616 359
1581939 2019-03-22 2119 376 HAN Hahn DEU eu JN39px 25 252 156 173
1581330 2019-03-22 2118 403 OJ Jonkoping SWE eu JO77aq 759 472 34
1581941 2019-03-22 2118 376.5 ORI Orio al Serio (BG) ITA eu JN45wp 25 764 475 162
1581956 2019-03-22 2117 386 RAK Rakovnik CZE eu JO60uc 532 330 113
1581332 2019-03-22 2117 404 MRV Merville / Calonne FRA eu JO10iq 336 209 240
1581333 2019-03-22 2117 404 LW Luxembourg LUX eu JN39co 50 296 184 189
1581955 2019-03-22 2117 386 O Kardla EST eu KO18kw 1247 775 47
1581329 2019-03-22 2116 402 OP Brussels National BEL eu JO20hw 212 131 228
1581327 2019-03-22 2115 400 EN Orebro SWE eu JO79mg 933 580 29
1581324 2019-03-22 2114 398 MT St Nazaire / Montoir FRA eu IN87xi 50 838 520 233
1581328 2019-03-22 2114 400.5 COD Codogno (LO) ITA eu JN45sf 802 499 164
1581326 2019-03-22 2112 399.5 ONO Oostende BEL eu JO11lf 25 292 181 249
1581954 2019-03-22 2111 386 LNE Milano / Linate (MI) ITA eu JN45pi 785 487 166
1581961 2019-03-22 2109 390 SAG Sajohidveg HNG eu KN07lx 1108 688 109
1581960 2019-03-22 2108 390 AVI Aviano (PN) ITA eu JN65fw 35 809 502 147
1581958 2019-03-22 2107 388 BDG Bydgoszcz / Szwederowo POL eu JO93ac 758 471 78
1581962 2019-03-22 2103 394 DND Dundee SCT eu IO86kk 25 798 496 309
1581964 2019-03-22 2100 397 EHN Eindhoven HOL eu JO21ql 15 133 82 231
1581981 2019-03-22 2056 415 OL Linkoping / Saab SWE eu JO78vj 886 551 35
1581986 2019-03-22 2052 418 MK Calais / Dunkerque FRA eu JO10ax 361 225 249
1581984 2019-03-22 2052 417 AH Angelholm / Barkakra SWE eu JO66kg 594 369 38
1581983 2019-03-22 2051 417 LI Dusseldorf DEU eu JO31ki 25 97 60 180
1581992 2019-03-22 2049 422 OSJ Osijek HRV eu JN95lk 100 1160 721 125
1581325 2019-03-22 2047 398 LRN Lorquin / Xouaxange FRA eu JN38lq 394 245 179
1581323 2019-03-22 2046 398 PEO Stockhlom / Skavsta / Peola SWE eu JO88mt 970 603 37
1581999 2019-03-22 2046 427 RY Royan / Medis FRA eu IN95no 928 577 220
1581321 2019-03-22 2044 397 EHN Eindhoven HOL eu JO21ql 15 133 82 231
1581319 2019-03-22 2043 395 OA Amsterdam / Schiphol / Assendelft HOL eu JO22jl 15 144 90 281
1581320 2019-03-22 2043 396 YG Rygge / Enge NOR eu JO59ji 829 515 15
1581318 2019-03-22 2042 394 NV Nevers / Fourchambault FRA eu JN16ow 645 401 205
1581317 2019-03-22 2040 393 TAT Molde / Aro / Tautra NOR eu JP32kq 1163 723 0
1581316 2019-03-22 2039 392.5 TOP Torino / Poirino (TO) ITA eu JN34ww 814 506 174
1581313 2019-03-22 2038 390 AVI Aviano (PN) ITA eu JN65fw 35 809 502 147
1581314 2019-03-22 2038 391 OKR Bratislava / M.R Stefanik / North SVK eu JN88pf 2000 863 536 116
1581995 2019-03-22 2032 424 PIS Zagreb / Pleso / Pisarovina HRV eu JN75wo 986 613 134
1581998 2019-03-22 2031 426 GBG Gleichenberg for Graz AUT eu JN76vv 100 874 543 129
1581997 2019-03-22 2031 426 MIQ Mike for Ingolstadt DEU eu JN58tn 529 328 138
1582000 2019-03-22 2030 429 LOS Losinj HRV eu JN74fm 40 1023 635 143
1581315 2019-03-22 2030 391 BV Beauvais / Tille FRA eu JN19al 20 457 284 229
1581993 2019-03-22 2029 423 FE Odense / Beldringe DNK eu JO55fm 435 270 31
1582002 2019-03-22 2028 433 CRE Cres HRV eu JN74fv 40 987 613 142
1581312 2019-03-22 2027 387 ING St. Inglevert FRA eu JO00uv 25 387 240 249
1581311 2019-03-22 2027 386.5 SLV Spa / La Sauveniere BEL eu JO20wl 15 207 128 200
1582001 2019-03-22 2027 431 KBA Karlsruhe / Baden Baden DEU eu JN48bt 390 242 166
1582006 2019-03-22 2026 448 HLV Holesov CZE eu JN89sh 816 507 109
1581308 2019-03-22 2026 386 STD Stad Aan Het Haringvliet HOL eu JO21cr 191 119 254
1581309 2019-03-22 2025 386 O Kardla EST eu KO18kw 1247 775 47
1581310 2019-03-22 2025 386 AK Shell Esso / Auk A Platform XOE iw JO16af 544 338 326
1582005 2019-03-22 2024 444 NRD Inowroclaw POL eu JO92eu 780 485 80
1581924 2019-03-22 2022 334 MR Maribor SVN eu JN76vi 49 918 570 131
1581923 2019-03-22 2018 333.5 VOG Voghera (PV) ITA eu JN44lx 820 510 168
1581925 2019-03-22 2016 335 WCO Westcott ENG eu IO91mu 537 334 268
1581921 2019-03-22 2010 327 LNZ Linz / Horsching AUT eu JN78df 689 428 127
1581917 2019-03-22 2005 319 VAR Stavanger / Sola / Varhaug NOR eu JO28tp 25 718 446 354
1581914 2019-03-22 2001 318 HIG Bremen DEU eu JO43kb 25 164 102 54
1581909 2019-03-22 2000 307 DIK Diekirch LUX eu JN39bu 269 167 191
1581406 2019-03-22 1909 327 LV Koln / Bonn DEU eu JO30ot 25 159 99 171
1581442 2019-03-22 1906 488 ILM Illesheim DEU eu JN59el 392 244 139
1581444 2019-03-22 1904 494 NOW Oksywie POL eu JO94gn 815 506 66
1581438 2019-03-22 1855 444 NRD Inowroclaw POL eu JO92eu 780 485 80
1581435 2019-03-22 1852 426 GBG Gleichenberg for Graz AUT eu JN76vv 100 874 543 129
1581436 2019-03-22 1851 432 PK Pardubice / Prvek CZE eu JO70va 668 415 108
1581434 2019-03-22 1850 424 PHG Phalsbourg / Bourscheid FRA eu JN38os 385 239 176
1581433 2019-03-22 1849 424 PIS Zagreb / Pleso / Pisarovina HRV eu JN75wo 986 613 134
1581432 2019-03-22 1848 421 MF Halmstad SWE eu JO66jp 622 387 35
1581428 2019-03-22 1847 413.5 DLS Berlin / Tempelhof / Lubars DEU eu JO62qo 50 443 275 82
1581429 2019-03-22 1846 417 LI Dusseldorf DEU eu JO31ki 25 97 60 180
1581427 2019-03-22 1845 409 SG Satenas / Tune SWE eu JO68ij 778 483 25
1581420 2019-03-22 1843 376 HAN Hahn DEU eu JN39px 25 252 156 173
1581307 2019-03-22 1725 383.5 GUL Gulpen HOL eu JO20wt 15 172 107 204
1581306 2019-03-22 1723 382 SBG Salzburg / Oberndorf AUT eu JN67kx 50 637 396 135
1581305 2019-03-22 1723 376 HAN Hahn DEU eu JN39px 25 252 156 173
1581304 2019-03-22 1722 375 OO Oostende BEL eu JO11ke 299 186 248
1581303 2019-03-22 1719 370 PSA Spessart DEU eu JN49qu 25 317 197 145
1581302 2019-03-22 1710 368.5 ELU Luxembourg-Berg LUX eu JN39eq 15 285 177 187
1581301 2019-03-22 1658 360.5 MAK Mackel for Brussels Ntl BEL eu JO10rx 274 170 240
1581300 2019-03-22 1655 355 ONW Antwerpen / Deurne BEL eu JO21ge 198 123 235
1581299 2019-03-22 1654 352.5 DD Oostende BEL eu JO11ke 100 299 186 248
1581295 2019-03-22 1652 350 FU Hamburg West DEU eu JO43xo 25 257 160 52
1581296 2019-03-22 1651 350.5 ROT Rotterdam HOL eu JO21gv 15 164 102 257
1581417 2019-03-22 1611 368 BYC Buckeburg DEU eu JO42ng 153 95 87
1581414 2019-03-22 1610 357 RJ Tripoli / Mitiga LBY af JM62qv 2212 1375 163
1581413 2019-03-22 1609 357 VZ Eelde / Groningen HOL eu JO33ea 94 59 339
1581283 2019-03-22 1609 328 VJ Stauning DNK eu JO45fx 430 267 13
1581282 2019-03-22 1603 318 HIG Bremen DEU eu JO43kb 25 164 102 54
1581281 2019-03-22 1601 315 PAH Parchim DEU eu JO53tj 344 214 66
1581280 2019-03-22 1559 314 OZ Brussels National BEL eu JO20ft 230 143 227
1581279 2019-03-22 1553 311 CEL Celle DEU eu JO52ao 25 219 136 77
1581278 2019-03-22 1543 307 DIK Diekirch LUX eu JN39bu 269 167 191
1581416 2019-03-22 1541 365 LJ Koln / Bonn DEU eu JO30mw 25 144 90 175
1581277 2019-03-22 1540 293 OB Brussels National BEL eu JO20hw 212 131 228
1581418 2019-03-22 1536 371 MYN Munster / Osnabruck DEU eu JO32vd 25 63 39 98
1581412 2019-03-22 1534 355 ONW Antwerpen / Deurne BEL eu JO21ge 198 123 235
1581404 2019-03-22 1339 290 ONL Liege / Bierset BEL eu JO20sq 15 195 121 208
1581405 2019-03-22 1338 311 LMA Lima / Bruggen DEU eu JO31ei 25 103 64 199
1581415 2019-03-22 1333 357 DWI Dortmund / Wickede DEU eu JO31tm 94 58 146
1581425 2019-03-22 1331 406.5 BOT Bottrop DEU eu JO31mn 25 75 47 171
1454564 2018-10-05 1955 732 AO Aksinyino RUS eu KO95dd 2076 1290 68
1420126 2018-07-17 2055 510 9HA3053 Bold Tern XOE iw JO11at 334 207 263
1281105 2017-09-12 2000 335 RIM Rimini (RN) ITA eu JN64gb 25 1000 621 153
1281106 2017-09-12 1937 489 OI Donskoye KAL eu JO94xw 913 567 65
1262945 2017-07-27 2059 315 NSO Ensco 121 OMI XOE iw JO04fo 500 311 304
1261364 2017-07-18 0135 390 VAL Valjevo SRB eu JN94wh 1300 808 127
1261363 2017-07-18 0129 388 BDG Bydgoszcz / Szwederowo POL eu JO93ac 758 471 78
1261365 2017-07-18 0124 390 SAG Sajohidveg HNG eu KN07lx 1108 688 109
1261362 2017-07-18 0120 384 IAS Iasi ROU eu KN37td 1589 987 102
1261366 2017-07-18 0110 401 BPL Bari / Palese (BA) ITA eu JN81gc 1437 893 145
1260491 2017-07-16 0105 316 OE Dublin IRL eu IO63sk 904 562 283
1260492 2017-07-16 0057 333 PI Schwerin / Parchim DEU eu JO53wl 363 226 65
1260495 2017-07-16 0050 463 CL Cerklje SVN eu JN75rv 940 584 135
1260494 2017-07-13 0349 347 CVT Chalons / Vatry FRA eu JN28ds 426 264 206
1260493 2017-07-08 0223 335 TON Torralba de Aragon ESP eu IN91rw 300 1273 791 208
1236980 2017-04-09 2340 275 O UNID XUF xx
1236981 2017-04-09 2328 460 AS UNID XUE xx
1227941 2017-03-22 0122 414 GR Dubrovnik / Gruda HRV eu JN92dm 1377 855 137
1227942 2017-03-22 0112 520 OO Shaykovka RUS eu KO74ef 1832 1138 72
1226038 2017-03-17 2229 297 BA Shatalovo RUS eu KO64fi 1707 1061 71
1224674 2017-03-13 2211 318 KLP Dubrovnik / Kolocep HRV eu JN92aq 50 1350 839 137
1224675 2017-03-13 1818 318 LE Luxembourg-Est LUX eu JN39dp 290 180 188
1224676 2017-03-13 1817 320 HA Hannover / East DEU eu JO42vl 25 200 124 80
1224673 2017-03-13 1817 318 AGB Augsburg DEU eu JN58lk 25 511 318 143
1224677 2017-03-13 1816 320 RUM Innsbruck / Rum AUT eu JN57rg 642 399 147
1222966 2017-03-07 2020 498 ZE UNID XUE xx
1170556 2016-11-21 2014 322 NG Powidz POL eu JO82wi 747 464 84
1164121 2016-11-07 2359 311.5 ML Cewice POL eu JO84vj 763 474 67
1164129 2016-11-07 2358 402 CAR Villasimius / Capo Carbonara (CA) SAR eu JM49sc 40 1474 916 170
1164128 2016-11-07 2357 400 TEA Teano (CE) ITA eu JN61xh 1327 824 153
1164127 2016-11-07 2354 397 CHE Cherchell ALG af JM16co 40 1775 1103 193
1164122 2016-11-07 2354 312 BOZ Bozhurishte BUL eu KN12os 1609 1000 124
1164126 2016-11-07 2346 370 GAC Gacko BIH eu JN93gd 40 1332 828 134
1164125 2016-11-07 2338 353 BNA Beni Amrane ALG af JM16tp 100 1751 1088 189
1164124 2016-11-07 2331 335 PAN Pantelleria (TP) SCY eu JM56xt 1760 1093 164
1164130 2016-11-07 2323 510 BL Blida ALG af JM16jm 1776 1103 192
1164123 2016-11-07 2205 335 FV Venev RUS eu KO94ci 2078 1291 71
1151895 2016-10-21 2109 480 AN Anapa / Vityazevo RUS eu KN84px 2356 1464 97
1151896 2016-10-21 1930 520 BHA UNID XUE xx
1151535 2016-10-20 2021 520 DF Mukhrani GEO as LN21gv 3034 1885 97
1151533 2016-10-19 2321 317 OZ Kardla EST eu KO18kw 1247 775 47
1151532 2016-10-19 2319 317 VS Valenciennes / Denain FRA eu JO10qi 320 199 230
1151530 2016-10-19 2312 306.5 AV Avord FRA eu JN16lv 657 408 206
1151531 2016-10-19 2309 307 DIK Diekirch LUX eu JN39bu 269 167 191
1151529 2016-10-19 2300 285 LCF Linkoping / Malmen SWE eu JO78rh 866 538 35
1151528 2016-10-19 2247 275 MS Monastir / Msaken TUN af JM55hr 1858 1155 169
1151527 2016-10-19 2230 267.5 OPW Bucuresti / Otopeni ROU eu KN24xn 1639 1019 113
1151534 2016-10-19 2020 321 ABY Albert / Bray FRA eu JN19jx 379 236 230
1147956 2016-10-14 2115 400 BRZ Rijeka / Krk / Breza HRV eu JN75ek 2000 933 579 141
1147957 2016-10-14 1816 470 SR UNID XUE xx
1147958 2016-10-14 1808 474.5 SA Darlowo POL eu JO84ek 676 420 64
1107528 2016-07-07 2050 597.5 3FEI3 Seajacks Hydra XOE iw
1100134 2016-06-15 1515 512 9HA3020 Vessel Brave Tern XOE iw JO34em 257 160 352
1045325 2016-02-06 0153 350.5 AMZ Aoka Mizu FPSO XOE iw JO07hv 745 463 330
1043436 2016-02-02 1820 988 OU UNID XUU xx
1029370 2016-01-05 0519 318 HIG Bremen DEU eu JO43kb 25 164 102 54
1029372 2016-01-05 0517 323 ONC Charleroi / Gosselies BEL eu JO20gl 25 253 157 220
1029371 2016-01-05 0517 321 VO Vojens / Skrydstrup DNK eu JO45pf 369 230 24
1029374 2016-01-05 0516 324 AS Kemi / Tornio FIN eu KP25eq 1788 1111 26
1029373 2016-01-05 0514 324 ON Norrkoping SWE eu JO88eo 927 576 36
1029375 2016-01-05 0512 326 LLS Lelystad HOL eu JO22sl 95 59 287
1029376 2016-01-05 0511 327 MVC Merville / Calonne FRA eu JO10hn 348 216 239
1029377 2016-01-05 0509 328 VJ Stauning DNK eu JO45fx 430 267 13
1029379 2016-01-05 0507 330 LNA Lena SWE eu JO89qm 1040 646 34
1029378 2016-01-05 0309 330 SO Eelde / Groningen HOL eu JO33jf 15 111 69 357
1029380 2016-01-05 0303 332 NV Amsterdam / Schiphol HOL eu JO22jd 15 142 88 267
1029381 2016-01-05 0301 333 G Kemi-Tornio / Marttala FIN eu KP25gs 1800 1118 26
1029382 2016-01-05 0300 333.5 VOG Voghera (PV) ITA eu JN44lx 820 510 168
1029383 2016-01-05 0300 335 BER Bern / Belp SUI eu JN36sv 595 370 175
1029384 2016-01-05 0258 341 LO Billund DNK eu JO45pr 420 261 21
1029388 2016-01-05 0256 350 FU Hamburg West DEU eu JO43xo 25 257 160 52
1029385 2016-01-05 0254 345.5 CF Caslav / Chotusice / Centograf CZE eu JN79rv 653 406 110
1029387 2016-01-05 0253 348 TPL Topola SRB eu KN04id 1359 845 125
1029386 2016-01-05 0253 347 CVT Chalons / Vatry FRA eu JN28ds 426 264 206
1029389 2016-01-05 0252 350.5 ROT Rotterdam HOL eu JO21gv 15 164 102 257
1029390 2016-01-05 0250 351.5 PLA Pula HRV eu JN64vv 2000 960 597 145
1029391 2016-01-05 0250 352 LAA Niederrhein DEU eu JO31co 45 83 52 213
1029392 2016-01-05 0250 354 PAD Paderborn / Lippstadt DEU eu JO41ho 25 139 86 119
1029393 2016-01-05 0248 355 ONW Antwerpen / Deurne BEL eu JO21ge 198 123 235
1029394 2016-01-05 0246 358 HW Hannover / West DEU eu JO42sl 25 183 114 80
1029396 2016-01-05 0246 360.5 MAK Mackel for Brussels Ntl BEL eu JO10rx 274 170 240
1029397 2016-01-05 0245 362 BZO Bolzano (BZ) ITA eu JN56pl 40 715 444 151
1029395 2016-01-05 0245 360 SR Saarbrucken / Ensheim DEU eu JN39of 25 334 208 175
1029398 2016-01-05 0244 363 OEM Kristianstad / Everod SWE eu JO75bx 630 391 45
1029400 2016-01-05 0243 366 UTH Orland / Uthaug NOR eu JP43sr 1288 800 5
1029399 2016-01-05 0242 365 LJ Koln / Bonn DEU eu JO30mw 25 144 90 175
1029402 2016-01-05 0241 368 BYC Buckeburg DEU eu JO42ng 153 95 87
1029401 2016-01-05 0239 367 VAT Chalon / Vatry FRA eu JN28at 429 267 208
1029403 2016-01-05 0238 368.5 ELU Luxembourg-Berg LUX eu JN39eq 15 285 177 187
1029406 2016-01-05 0236 374 CPR Shell / Esso Clipper Platform XOE iw JO03ul 374 232 293
1029404 2016-01-05 0236 371 MYN Munster / Osnabruck DEU eu JO32vd 25 63 39 98
1029408 2016-01-05 0235 375 GLA Gland for Geneva / Cointrain SUI eu JN36cj 650 404 184
1029405 2016-01-05 0235 373 NW Maastricht / Beek HOL eu JO21wa 15 151 94 207
1029407 2016-01-05 0233 374.5 ANC Ancona (AN) ITA eu JN63ro 35 1076 669 150
1029411 2016-01-05 0232 379 PIS Pisa (PI) ITA eu JN53do 25 992 616 163
1029417 2016-01-05 0231 390 AVI Aviano (PN) ITA eu JN65fw 35 809 502 147
1029409 2016-01-05 0230 376 HAN Hahn DEU eu JN39px 25 252 156 173
1029410 2016-01-05 0229 379 REK Reksten NOR eu JP21kn 100 1045 649 354
1029412 2016-01-05 0228 380 HO Colmar / Houssen FRA eu JN38qd 455 283 175
1029413 2016-01-05 0228 382 SBG Salzburg / Oberndorf AUT eu JN67kx 50 637 396 135
1029414 2016-01-05 0227 383.5 GUL Gulpen HOL eu JO20wt 15 172 107 204
1029415 2016-01-05 0226 386 STD Stad Aan Het Haringvliet HOL eu JO21cr 191 119 254
1029416 2016-01-05 0226 386 RAK Rakovnik CZE eu JO60uc 532 330 113
1029418 2016-01-05 0203 397 EHN Eindhoven HOL eu JO21ql 15 133 82 231
1029419 2016-01-05 0201 398 LRN Lorquin / Xouaxange FRA eu JN38lq 394 245 179
1029431 2016-01-05 0158 520 NW Leczyca POL eu JO91ox 842 523 87
1029430 2016-01-05 0158 517 JBR Jaszbereny HNG eu JN97wl 1069 664 114
1029429 2016-01-05 0156 508 Z Zilina / Hlinik SVK eu JN99hf 890 553 107
1029428 2016-01-05 0155 495 PA Pancevo SRB eu KN04hv 50 1296 805 123
1029427 2016-01-05 0154 488 ILM Illesheim DEU eu JN59el 392 244 139
1029426 2016-01-05 0151 444 NRD Inowroclaw POL eu JO92eu 780 485 80
1029421 2016-01-05 0150 419 EMT Epinal / Mirecourt FRA eu JN38ch 438 272 186
1029424 2016-01-05 0148 429 LOS Losinj HRV eu JN74fm 40 1023 635 143
1029422 2016-01-05 0143 424 PIS Zagreb / Pleso / Pisarovina HRV eu JN75wo 986 613 134
1029425 2016-01-05 0142 433 CRE Cres HRV eu JN74fv 40 987 613 142
1029423 2016-01-05 0141 426 GBG Gleichenberg for Graz AUT eu JN76vv 100 874 543 129
1029420 2016-01-05 0139 418 DVN Split / Drvenik HRV eu JN83bk 1195 742 141
1029670 2016-01-03 2036 324 ON Norrkoping SWE eu JO88eo 927 576 36
1029669 2016-01-03 2035 323 ONC Charleroi / Gosselies BEL eu JO20gl 25 253 157 220
1029668 2016-01-03 2033 321 VO Vojens / Skrydstrup DNK eu JO45pf 369 230 24
1029667 2016-01-03 2030 319 VAR Stavanger / Sola / Varhaug NOR eu JO28tp 25 718 446 354
1029666 2016-01-03 2028 317 OZ Kardla EST eu KO18kw 1247 775 47
1029665 2016-01-03 2026 397 EHN Eindhoven HOL eu JO21ql 15 133 82 231
1029664 2016-01-03 2024 408 BRK Wien / Schwechat / Bruck AUT eu JN88ib 839 521 119
1029663 2016-01-03 2018 350 LAA Oulu / Laanila FIN eu KP24ox 1757 1092 29
1029662 2016-01-03 2016 350 FU Hamburg West DEU eu JO43xo 25 257 160 52
1029661 2016-01-03 2014 351.5 PLA Pula HRV eu JN64vv 2000 960 597 145
1029442 2016-01-03 1806 363 OEM Kristianstad / Everod SWE eu JO75bx 630 391 45
1029438 2016-01-03 1802 343 KUS Kaunas / Karmelava LTU eu KO24bx 100 1175 730 68
1029437 2016-01-03 1800 341 LO Billund DNK eu JO45pr 420 261 21
1029436 2016-01-03 1758 332 LL Lille / Lesquin FRA eu JO10on 315 196 235
1029435 2016-01-03 1751 327 LV Koln / Bonn DEU eu JO30ot 25 159 99 171
1029434 2016-01-03 1748 319 VAR Stavanger / Sola / Varhaug NOR eu JO28tp 25 718 446 354
1029433 2016-01-03 1747 293 OB Brussels National BEL eu JO20hw 212 131 228
1029439 2016-01-03 1500 345.5 CF Caslav / Chotusice / Centograf CZE eu JN79rv 653 406 110
1029440 2016-01-03 1459 350.5 ROT Rotterdam HOL eu JO21gv 15 164 102 257
1029441 2016-01-03 1456 362 BZO Bolzano (BZ) ITA eu JN56pl 40 715 444 151
1029709 2016-01-03 1418 352 WOD Woodley ENG eu IO91nk 539 335 263
1029708 2016-01-03 1411 328 BLK Blackbushe ENG eu IO91nh 543 337 262
1028462 2016-01-03 0406 391 OKR Bratislava / M.R Stefanik / North SVK eu JN88pf 2000 863 536 116
1029660 2016-01-03 0000 324 ON Norrkoping SWE eu JO88eo 927 576 36
1029655 2016-01-03 0000 408 BRK Wien / Schwechat / Bruck AUT eu JN88ib 839 521 119
1029653 2016-01-03 0000 350 FU Hamburg West DEU eu JO43xo 25 257 160 52
1029652 2016-01-03 0000 351.5 PLA Pula HRV eu JN64vv 2000 960 597 145
1029656 2016-01-03 0000 397 EHN Eindhoven HOL eu JO21ql 15 133 82 231
1029657 2016-01-03 0000 317 OZ Kardla EST eu KO18kw 1247 775 47
1029654 2016-01-03 0000 350 LAA Oulu / Laanila FIN eu KP24ox 1757 1092 29
1029658 2016-01-03 0000 321 VO Vojens / Skrydstrup DNK eu JO45pf 369 230 24
1029659 2016-01-03 0000 323 ONC Charleroi / Gosselies BEL eu JO20gl 25 253 157 220
1028461 2016-01-02 2055 412 PP Pecs / Pogany HNG eu JN96ca 1073 667 125
1028459 2016-01-02 2051 421 MF Halmstad SWE eu JO66jp 622 387 35
1028458 2016-01-02 2043 423 CWL Cranwell ENG eu IO93sa 5 502 312 282
1028457 2016-01-02 2039 424 PIS Zagreb / Pleso / Pisarovina HRV eu JN75wo 986 613 134
1028456 2016-01-02 2033 400.5 EJ Esbjerg DNK eu JO45in 390 242 17
1028524 2016-01-02 1856 426 GBG Gleichenberg for Graz AUT eu JN76vv 100 874 543 129
1028523 2016-01-02 1855 379 EB St Etienne / Boutheon FRA eu JN25dp 756 470 195
1028522 2016-01-02 1855 379 REK Reksten NOR eu JP21kn 100 1045 649 354
1028521 2016-01-02 1854 375 GLA Gland for Geneva / Cointrain SUI eu JN36cj 650 404 184
1028520 2016-01-02 1850 326 LLS Lelystad HOL eu JO22sl 95 59 287
1028519 2016-01-02 1848 316 EPM Epsom for Heathrow ENG eu IO91th 25 509 316 261
1028518 2016-01-02 1847 311 LMA Lima / Bruggen DEU eu JO31ei 25 103 64 199
1028517 2016-01-02 1846 307 DIK Diekirch LUX eu JN39bu 269 167 191
1028516 2016-01-02 1845 306 PAR Parma (PR) ITA eu JN54dt 40 862 536 161
1028515 2016-01-02 1843 300 NE Pruszcz Gdanski POL eu JO94if 817 508 69
1028455 2016-01-02 1839 399.5 ONO Oostende BEL eu JO11lf 25 292 181 249
1028454 2016-01-02 1837 397 BLB Blois / Le Breuil FRA eu JN07oq 647 402 220
1028453 2016-01-02 1836 397 EHN Eindhoven HOL eu JO21ql 15 133 82 231
1028101 2016-01-02 0817 357 DWI Dortmund / Wickede DEU eu JO31tm